sensor_id;sensor_type;location;lat;lon;timestamp;P1;durP1;ratioP1;P2;durP2;ratioP2
18659;SDS011;9459;50.254;19.014;2024-01-15T00:02:31;15.10;;;8.13;;
18659;SDS011;9459;50.254;19.014;2024-01-15T00:05:00;14.80;;;7.88;;
18659;SDS011;9459;50.254;19.014;2024-01-15T00:07:29;17.13;;;8.25;;
18659;SDS011;9459;50.254;19.014;2024-01-15T00:09:59;14.18;;;7.25;;
18659;SDS011;9459;50.254;19.014;2024-01-15T00:12:31;13.48;;;7.75;;
18659;SDS011;9459;50.254;19.014;2024-01-15T00:15:00;16.70;;;7.30;;
18659;SDS011;9459;50.254;19.014;2024-01-15T00:17:28;14.60;;;7.60;;
18659;SDS011;9459;50.254;19.014;2024-01-15T00:19:57;12.57;;;7.20;;
18659;SDS011;9459;50.254;19.014;2024-01-15T00:22:26;14.25;;;7.65;;
18659;SDS011;9459;50.254;19.014;2024-01-15T00:24:54;12.85;;;6.85;;
18659;SDS011;9459;50.254;19.014;2024-01-15T00:27:24;11.55;;;6.95;;
18659;SDS011;9459;50.254;19.014;2024-01-15T00:29:53;12.05;;;6.68;;
18659;SDS011;9459;50.254;19.014;2024-01-15T00:32:21;12.52;;;6.45;;
18659;SDS011;9459;50.254;19.014;2024-01-15T00:34:50;14.18;;;6.97;;
18659;SDS011;9459;50.254;19.014;2024-01-15T00:37:18;11.82;;;6.28;;
18659;SDS011;9459;50.254;19.014;2024-01-15T00:39:47;12.07;;;6.97;;
18659;SDS011;9459;50.254;19.014;2024-01-15T00:42:16;13.40;;;6.70;;
18659;SDS011;9459;50.254;19.014;2024-01-15T00:44:46;14.85;;;7.18;;
18659;SDS011;9459;50.254;19.014;2024-01-15T00:47:14;10.18;;;5.97;;
18659;SDS011;9459;50.254;19.014;2024-01-15T00:49:43;12.90;;;7.10;;
18659;SDS011;9459;50.254;19.014;2024-01-15T00:52:11;13.32;;;6.68;;
18659;SDS011;9459;50.254;19.014;2024-01-15T00:54:40;11.23;;;6.00;;
18659;SDS011;9459;50.254;19.014;2024-01-15T00:57:09;10.27;;;6.15;;
18659;SDS011;9459;50.254;19.014;2024-01-15T00:59:37;13.43;;;6.35;;
18659;SDS011;9459;50.254;19.014;2024-01-15T01:02:08;11.10;;;5.75;;
18659;SDS011;9459;50.254;19.014;2024-01-15T01:04:36;9.47;;;5.53;;
18659;SDS011;9459;50.254;19.014;2024-01-15T01:07:05;10.07;;;5.47;;
18659;SDS011;9459;50.254;19.014;2024-01-15T01:09:34;10.23;;;5.85;;
18659;SDS011;9459;50.254;19.014;2024-01-15T01:12:04;11.48;;;5.88;;
18659;SDS011;9459;50.254;19.014;2024-01-15T01:14:33;12.18;;;6.70;;
18659;SDS011;9459;50.254;19.014;2024-01-15T01:17:01;10.02;;;5.35;;
18659;SDS011;9459;50.254;19.014;2024-01-15T01:19:31;10.20;;;5.55;;
18659;SDS011;9459;50.254;19.014;2024-01-15T01:22:00;9.45;;;5.32;;
18659;SDS011;9459;50.254;19.014;2024-01-15T01:24:28;11.40;;;6.15;;
18659;SDS011;9459;50.254;19.014;2024-01-15T01:26:57;9.13;;;5.07;;
18659;SDS011;9459;50.254;19.014;2024-01-15T01:29:26;10.57;;;5.57;;
18659;SDS011;9459;50.254;19.014;2024-01-15T01:31:54;10.48;;;5.68;;
18659;SDS011;9459;50.254;19.014;2024-01-15T01:34:23;11.90;;;5.75;;
18659;SDS011;9459;50.254;19.014;2024-01-15T01:36:53;10.77;;;5.82;;
18659;SDS011;9459;50.254;19.014;2024-01-15T01:39:22;10.73;;;5.45;;
18659;SDS011;9459;50.254;19.014;2024-01-15T01:41:50;11.65;;;6.18;;
18659;SDS011;9459;50.254;19.014;2024-01-15T01:44:19;9.75;;;5.20;;
18659;SDS011;9459;50.254;19.014;2024-01-15T01:46:47;9.65;;;5.10;;
18659;SDS011;9459;50.254;19.014;2024-01-15T01:49:15;10.43;;;5.63;;
18659;SDS011;9459;50.254;19.014;2024-01-15T01:51:44;9.13;;;4.93;;
18659;SDS011;9459;50.254;19.014;2024-01-15T01:54:14;9.80;;;5.03;;
18659;SDS011;9459;50.254;19.014;2024-01-15T01:56:43;9.15;;;4.40;;
18659;SDS011;9459;50.254;19.014;2024-01-15T01:59:11;8.18;;;4.85;;
18659;SDS011;9459;50.254;19.014;2024-01-15T02:01:40;7.60;;;4.53;;
18659;SDS011;9459;50.254;19.014;2024-01-15T02:04:10;11.95;;;5.50;;
18659;SDS011;9459;50.254;19.014;2024-01-15T02:06:40;7.97;;;4.63;;
18659;SDS011;9459;50.254;19.014;2024-01-15T02:09:08;8.25;;;4.88;;
18659;SDS011;9459;50.254;19.014;2024-01-15T02:11:38;8.50;;;4.38;;
18659;SDS011;9459;50.254;19.014;2024-01-15T02:14:08;7.68;;;4.80;;
18659;SDS011;9459;50.254;19.014;2024-01-15T02:16:37;10.10;;;4.75;;
18659;SDS011;9459;50.254;19.014;2024-01-15T02:19:06;7.97;;;4.40;;
18659;SDS011;9459;50.254;19.014;2024-01-15T02:21:34;8.60;;;4.72;;
18659;SDS011;9459;50.254;19.014;2024-01-15T02:24:04;8.18;;;4.75;;
18659;SDS011;9459;50.254;19.014;2024-01-15T02:26:33;7.00;;;4.32;;
18659;SDS011;9459;50.254;19.014;2024-01-15T02:29:04;7.63;;;4.60;;
18659;SDS011;9459;50.254;19.014;2024-01-15T02:31:33;8.15;;;4.13;;
18659;SDS011;9459;50.254;19.014;2024-01-15T02:34:01;6.35;;;3.95;;
18659;SDS011;9459;50.254;19.014;2024-01-15T02:36:30;8.73;;;4.60;;
18659;SDS011;9459;50.254;19.014;2024-01-15T02:38:58;9.73;;;4.57;;
18659;SDS011;9459;50.254;19.014;2024-01-15T02:41:28;7.57;;;3.88;;
18659;SDS011;9459;50.254;19.014;2024-01-15T02:43:57;7.97;;;4.05;;
18659;SDS011;9459;50.254;19.014;2024-01-15T02:46:25;7.00;;;4.03;;
18659;SDS011;9459;50.254;19.014;2024-01-15T02:48:54;7.28;;;3.80;;
18659;SDS011;9459;50.254;19.014;2024-01-15T02:51:23;6.35;;;3.78;;
18659;SDS011;9459;50.254;19.014;2024-01-15T02:53:51;6.28;;;3.67;;
18659;SDS011;9459;50.254;19.014;2024-01-15T02:56:20;6.90;;;3.63;;
18659;SDS011;9459;50.254;19.014;2024-01-15T02:58:50;6.30;;;3.22;;
18659;SDS011;9459;50.254;19.014;2024-01-15T03:01:18;6.53;;;3.78;;
18659;SDS011;9459;50.254;19.014;2024-01-15T03:03:47;5.68;;;3.50;;
18659;SDS011;9459;50.254;19.014;2024-01-15T03:06:16;6.10;;;3.75;;
18659;SDS011;9459;50.254;19.014;2024-01-15T03:08:44;5.47;;;3.30;;
18659;SDS011;9459;50.254;19.014;2024-01-15T03:11:12;7.90;;;3.30;;
18659;SDS011;9459;50.254;19.014;2024-01-15T03:13:41;5.88;;;3.45;;
18659;SDS011;9459;50.254;19.014;2024-01-15T03:16:11;5.20;;;3.10;;
18659;SDS011;9459;50.254;19.014;2024-01-15T03:18:40;5.50;;;3.50;;
18659;SDS011;9459;50.254;19.014;2024-01-15T03:21:08;4.82;;;3.22;;
18659;SDS011;9459;50.254;19.014;2024-01-15T03:23:37;6.38;;;3.50;;
18659;SDS011;9459;50.254;19.014;2024-01-15T03:26:05;6.28;;;3.13;;
18659;SDS011;9459;50.254;19.014;2024-01-15T03:28:34;4.93;;;3.10;;
18659;SDS011;9459;50.254;19.014;2024-01-15T03:31:02;6.65;;;2.95;;
18659;SDS011;9459;50.254;19.014;2024-01-15T03:33:32;7.47;;;3.35;;
18659;SDS011;9459;50.254;19.014;2024-01-15T03:36:01;7.82;;;3.63;;
18659;SDS011;9459;50.254;19.014;2024-01-15T03:38:30;6.63;;;3.17;;
18659;SDS011;9459;50.254;19.014;2024-01-15T03:40:58;5.13;;;3.20;;
18659;SDS011;9459;50.254;19.014;2024-01-15T03:43:27;6.53;;;3.38;;
18659;SDS011;9459;50.254;19.014;2024-01-15T03:45:55;7.07;;;3.63;;
18659;SDS011;9459;50.254;19.014;2024-01-15T03:48:24;6.00;;;3.33;;
18659;SDS011;9459;50.254;19.014;2024-01-15T03:50:54;5.55;;;3.28;;
18659;SDS011;9459;50.254;19.014;2024-01-15T03:53:22;6.32;;;3.70;;
18659;SDS011;9459;50.254;19.014;2024-01-15T03:55:51;6.35;;;3.60;;
18659;SDS011;9459;50.254;19.014;2024-01-15T03:58:19;6.80;;;3.53;;
18659;SDS011;9459;50.254;19.014;2024-01-15T04:00:48;6.10;;;3.42;;
18659;SDS011;9459;50.254;19.014;2024-01-15T04:03:16;6.35;;;3.80;;
18659;SDS011;9459;50.254;19.014;2024-01-15T04:05:45;7.00;;;3.45;;
18659;SDS011;9459;50.254;19.014;2024-01-15T04:08:15;5.05;;;3.13;;
18659;SDS011;9459;50.254;19.014;2024-01-15T04:10:43;6.50;;;3.45;;
18659;SDS011;9459;50.254;19.014;2024-01-15T04:13:12;6.28;;;3.45;;
18659;SDS011;9459;50.254;19.014;2024-01-15T04:15:40;6.68;;;3.83;;
18659;SDS011;9459;50.254;19.014;2024-01-15T04:18:09;7.10;;;4.10;;
18659;SDS011;9459;50.254;19.014;2024-01-15T04:20:37;6.63;;;4.20;;
18659;SDS011;9459;50.254;19.014;2024-01-15T04:23:06;6.95;;;3.47;;
18659;SDS011;9459;50.254;19.014;2024-01-15T04:25:36;7.75;;;3.60;;
18659;SDS011;9459;50.254;19.014;2024-01-15T04:28:04;7.05;;;4.25;;
18659;SDS011;9459;50.254;19.014;2024-01-15T04:30:33;8.13;;;4.28;;
18659;SDS011;9459;50.254;19.014;2024-01-15T04:33:02;6.97;;;3.97;;
18659;SDS011;9459;50.254;19.014;2024-01-15T04:35:30;6.18;;;3.38;;
18659;SDS011;9459;50.254;19.014;2024-01-15T04:37:59;8.52;;;4.18;;
18659;SDS011;9459;50.254;19.014;2024-01-15T04:40:27;8.55;;;4.10;;
18659;SDS011;9459;50.254;19.014;2024-01-15T04:42:57;8.05;;;4.28;;
18659;SDS011;9459;50.254;19.014;2024-01-15T04:45:26;9.05;;;4.15;;
18659;SDS011;9459;50.254;19.014;2024-01-15T04:47:55;7.05;;;4.20;;
18659;SDS011;9459;50.254;19.014;2024-01-15T04:50:24;6.82;;;3.92;;
18659;SDS011;9459;50.254;19.014;2024-01-15T04:52:53;7.75;;;4.20;;
18659;SDS011;9459;50.254;19.014;2024-01-15T04:55:21;7.72;;;4.32;;
18659;SDS011;9459;50.254;19.014;2024-01-15T04:57:50;7.63;;;4.40;;
18659;SDS011;9459;50.254;19.014;2024-01-15T05:00:20;9.85;;;4.45;;
18659;SDS011;9459;50.254;19.014;2024-01-15T05:02:49;7.63;;;4.50;;
18659;SDS011;9459;50.254;19.014;2024-01-15T05:05:17;7.05;;;4.25;;
18659;SDS011;9459;50.254;19.014;2024-01-15T05:07:46;8.65;;;4.43;;
18659;SDS011;9459;50.254;19.014;2024-01-15T05:10:14;8.07;;;4.50;;
18659;SDS011;9459;50.254;19.014;2024-01-15T05:12:43;7.45;;;4.25;;
18659;SDS011;9459;50.254;19.014;2024-01-15T05:15:12;8.35;;;4.35;;
18659;SDS011;9459;50.254;19.014;2024-01-15T05:17:42;9.73;;;4.93;;
18659;SDS011;9459;50.254;19.014;2024-01-15T05:20:10;8.55;;;4.90;;
18659;SDS011;9459;50.254;19.014;2024-01-15T05:22:39;8.18;;;4.75;;
18659;SDS011;9459;50.254;19.014;2024-01-15T05:25:08;8.85;;;4.65;;
18659;SDS011;9459;50.254;19.014;2024-01-15T05:27:36;11.13;;;4.82;;
18659;SDS011;9459;50.254;19.014;2024-01-15T05:30:05;9.40;;;4.72;;
18659;SDS011;9459;50.254;19.014;2024-01-15T05:32:34;8.18;;;4.45;;
18659;SDS011;9459;50.254;19.014;2024-01-15T05:35:04;8.88;;;4.47;;
18659;SDS011;9459;50.254;19.014;2024-01-15T05:37:33;10.35;;;4.85;;
18659;SDS011;9459;50.254;19.014;2024-01-15T05:40:02;9.43;;;5.22;;
18659;SDS011;9459;50.254;19.014;2024-01-15T05:42:32;9.13;;;5.03;;
18659;SDS011;9459;50.254;19.014;2024-01-15T05:45:00;13.10;;;5.57;;
18659;SDS011;9459;50.254;19.014;2024-01-15T05:47:31;8.57;;;5.15;;
18659;SDS011;9459;50.254;19.014;2024-01-15T05:50:00;11.25;;;5.55;;
18659;SDS011;9459;50.254;19.014;2024-01-15T05:52:30;10.45;;;5.53;;
18659;SDS011;9459;50.254;19.014;2024-01-15T05:54:59;9.70;;;5.07;;
18659;SDS011;9459;50.254;19.014;2024-01-15T05:57:27;9.25;;;5.05;;
18659;SDS011;9459;50.254;19.014;2024-01-15T05:59:56;9.70;;;4.80;;
18659;SDS011;9459;50.254;19.014;2024-01-15T06:02:25;10.20;;;5.38;;
18659;SDS011;9459;50.254;19.014;2024-01-15T06:04:53;8.32;;;4.35;;
18659;SDS011;9459;50.254;19.014;2024-01-15T06:07:22;15.68;;;7.38;;
18659;SDS011;9459;50.254;19.014;2024-01-15T06:09:52;14.30;;;6.57;;
18659;SDS011;9459;50.254;19.014;2024-01-15T06:12:21;12.40;;;6.15;;
18659;SDS011;9459;50.254;19.014;2024-01-15T06:14:50;9.80;;;5.40;;
18659;SDS011;9459;50.254;19.014;2024-01-15T06:17:19;12.23;;;5.80;;
18659;SDS011;9459;50.254;19.014;2024-01-15T06:19:48;10.27;;;5.85;;
18659;SDS011;9459;50.254;19.014;2024-01-15T06:22:17;12.73;;;6.13;;
18659;SDS011;9459;50.254;19.014;2024-01-15T06:24:45;10.05;;;5.78;;
18659;SDS011;9459;50.254;19.014;2024-01-15T06:27:16;9.73;;;5.60;;
18659;SDS011;9459;50.254;19.014;2024-01-15T06:29:44;10.23;;;5.60;;
18659;SDS011;9459;50.254;19.014;2024-01-15T06:32:17;11.95;;;5.13;;
18659;SDS011;9459;50.254;19.014;2024-01-15T06:34:45;10.05;;;5.32;;
18659;SDS011;9459;50.254;19.014;2024-01-15T06:37:14;9.88;;;5.00;;
18659;SDS011;9459;50.254;19.014;2024-01-15T06:39:42;11.52;;;6.10;;
18659;SDS011;9459;50.254;19.014;2024-01-15T06:42:11;13.00;;;6.18;;
18659;SDS011;9459;50.254;19.014;2024-01-15T06:44:41;11.73;;;5.45;;
18659;SDS011;9459;50.254;19.014;2024-01-15T06:47:09;10.18;;;6.25;;
18659;SDS011;9459;50.254;19.014;2024-01-15T06:49:37;11.43;;;6.47;;
18659;SDS011;9459;50.254;19.014;2024-01-15T06:52:06;13.65;;;7.20;;
18659;SDS011;9459;50.254;19.014;2024-01-15T06:54:34;10.98;;;6.50;;
18659;SDS011;9459;50.254;19.014;2024-01-15T06:57:03;11.32;;;6.47;;
18659;SDS011;9459;50.254;19.014;2024-01-15T06:59:33;16.45;;;7.88;;
18659;SDS011;9459;50.254;19.014;2024-01-15T07:02:04;15.85;;;8.45;;
18659;SDS011;9459;50.254;19.014;2024-01-15T07:04:34;13.77;;;7.00;;
18659;SDS011;9459;50.254;19.014;2024-01-15T07:07:06;14.73;;;7.97;;
18659;SDS011;9459;50.254;19.014;2024-01-15T07:09:34;16.77;;;7.63;;
18659;SDS011;9459;50.254;19.014;2024-01-15T07:12:03;12.30;;;7.63;;
18659;SDS011;9459;50.254;19.014;2024-01-15T07:14:33;15.07;;;8.13;;
18659;SDS011;9459;50.254;19.014;2024-01-15T07:17:04;12.60;;;7.00;;
18659;SDS011;9459;50.254;19.014;2024-01-15T07:19:33;11.32;;;6.38;;
18659;SDS011;9459;50.254;19.014;2024-01-15T07:22:02;13.18;;;6.65;;
18659;SDS011;9459;50.254;19.014;2024-01-15T07:24:31;13.05;;;6.72;;
18659;SDS011;9459;50.254;19.014;2024-01-15T07:27:01;13.10;;;7.30;;
18659;SDS011;9459;50.254;19.014;2024-01-15T07:29:31;13.90;;;7.25;;
18659;SDS011;9459;50.254;19.014;2024-01-15T07:32:04;13.55;;;6.65;;
18659;SDS011;9459;50.254;19.014;2024-01-15T07:34:34;11.70;;;6.88;;
18659;SDS011;9459;50.254;19.014;2024-01-15T07:37:03;11.43;;;7.03;;
18659;SDS011;9459;50.254;19.014;2024-01-15T07:39:31;12.23;;;5.75;;
18659;SDS011;9459;50.254;19.014;2024-01-15T07:42:00;13.50;;;6.38;;
18659;SDS011;9459;50.254;19.014;2024-01-15T07:44:29;11.93;;;6.55;;
18659;SDS011;9459;50.254;19.014;2024-01-15T07:46:57;10.93;;;6.40;;
18659;SDS011;9459;50.254;19.014;2024-01-15T07:49:28;17.13;;;7.60;;
18659;SDS011;9459;50.254;19.014;2024-01-15T07:51:56;12.75;;;7.00;;
18659;SDS011;9459;50.254;19.014;2024-01-15T07:54:25;18.50;;;8.93;;
18659;SDS011;9459;50.254;19.014;2024-01-15T07:56:54;14.02;;;7.53;;
18659;SDS011;9459;50.254;19.014;2024-01-15T07:59:23;12.63;;;7.50;;
18659;SDS011;9459;50.254;19.014;2024-01-15T08:01:52;26.42;;;14.93;;
18659;SDS011;9459;50.254;19.014;2024-01-15T08:04:20;13.23;;;6.93;;
18659;SDS011;9459;50.254;19.014;2024-01-15T08:06:51;18.52;;;7.00;;
18659;SDS011;9459;50.254;19.014;2024-01-15T08:09:20;14.65;;;7.43;;
18659;SDS011;9459;50.254;19.014;2024-01-15T08:11:49;14.55;;;7.43;;
18659;SDS011;9459;50.254;19.014;2024-01-15T08:14:17;13.88;;;7.18;;
18659;SDS011;9459;50.254;19.014;2024-01-15T08:16:46;15.93;;;8.18;;
18659;SDS011;9459;50.254;19.014;2024-01-15T08:19:14;16.17;;;8.30;;
18659;SDS011;9459;50.254;19.014;2024-01-15T08:21:43;18.88;;;8.93;;
18659;SDS011;9459;50.254;19.014;2024-01-15T08:24:14;17.95;;;8.63;;
18659;SDS011;9459;50.254;19.014;2024-01-15T08:26:44;14.60;;;7.75;;
18659;SDS011;9459;50.254;19.014;2024-01-15T08:29:12;16.30;;;8.90;;
18659;SDS011;9459;50.254;19.014;2024-01-15T08:31:41;17.13;;;9.02;;
18659;SDS011;9459;50.254;19.014;2024-01-15T08:34:10;14.88;;;8.80;;
18659;SDS011;9459;50.254;19.014;2024-01-15T08:36:38;17.27;;;9.48;;
18659;SDS011;9459;50.254;19.014;2024-01-15T08:39:07;22.25;;;11.98;;
18659;SDS011;9459;50.254;19.014;2024-01-15T08:41:37;20.33;;;11.15;;
18659;SDS011;9459;50.254;19.014;2024-01-15T08:44:06;19.80;;;9.65;;
18659;SDS011;9459;50.254;19.014;2024-01-15T08:46:35;18.70;;;9.45;;
18659;SDS011;9459;50.254;19.014;2024-01-15T08:49:03;17.98;;;9.50;;
18659;SDS011;9459;50.254;19.014;2024-01-15T08:51:33;17.13;;;8.60;;
18659;SDS011;9459;50.254;19.014;2024-01-15T08:54:01;16.83;;;9.30;;
18659;SDS011;9459;50.254;19.014;2024-01-15T08:56:30;35.50;;;14.85;;
18659;SDS011;9459;50.254;19.014;2024-01-15T08:59:00;18.90;;;9.65;;
18659;SDS011;9459;50.254;19.014;2024-01-15T09:01:28;21.63;;;10.27;;
18659;SDS011;9459;50.254;19.014;2024-01-15T09:03:57;23.95;;;11.75;;
18659;SDS011;9459;50.254;19.014;2024-01-15T09:06:30;20.48;;;11.13;;
18659;SDS011;9459;50.254;19.014;2024-01-15T09:08:58;20.98;;;10.88;;
18659;SDS011;9459;50.254;19.014;2024-01-15T09:11:28;15.70;;;9.20;;
18659;SDS011;9459;50.254;19.014;2024-01-15T09:13:56;19.02;;;9.73;;
18659;SDS011;9459;50.254;19.014;2024-01-15T09:16:27;19.40;;;9.65;;
18659;SDS011;9459;50.254;19.014;2024-01-15T09:18:56;16.75;;;8.98;;
18659;SDS011;9459;50.254;19.014;2024-01-15T09:21:25;18.98;;;9.20;;
18659;SDS011;9459;50.254;19.014;2024-01-15T09:23:53;16.13;;;8.52;;
18659;SDS011;9459;50.254;19.014;2024-01-15T09:26:22;19.77;;;10.80;;
18659;SDS011;9459;50.254;19.014;2024-01-15T09:28:51;15.82;;;8.38;;
18659;SDS011;9459;50.254;19.014;2024-01-15T09:31:20;17.25;;;8.57;;
18659;SDS011;9459;50.254;19.014;2024-01-15T09:33:50;18.50;;;9.73;;
18659;SDS011;9459;50.254;19.014;2024-01-15T09:36:23;16.73;;;8.85;;
18659;SDS011;9459;50.254;19.014;2024-01-15T09:38:52;18.58;;;9.13;;
18659;SDS011;9459;50.254;19.014;2024-01-15T09:41:20;15.00;;;8.38;;
18659;SDS011;9459;50.254;19.014;2024-01-15T09:43:49;18.90;;;9.73;;
18659;SDS011;9459;50.254;19.014;2024-01-15T09:46:19;20.73;;;9.25;;
18659;SDS011;9459;50.254;19.014;2024-01-15T09:48:47;18.45;;;9.02;;
18659;SDS011;9459;50.254;19.014;2024-01-15T09:51:17;19.33;;;8.25;;
18659;SDS011;9459;50.254;19.014;2024-01-15T09:53:46;18.23;;;9.35;;
18659;SDS011;9459;50.254;19.014;2024-01-15T09:56:15;15.35;;;8.98;;
18659;SDS011;9459;50.254;19.014;2024-01-15T09:58:43;19.52;;;10.32;;
18659;SDS011;9459;50.254;19.014;2024-01-15T10:01:12;21.85;;;11.38;;
18659;SDS011;9459;50.254;19.014;2024-01-15T10:03:42;19.63;;;10.52;;
18659;SDS011;9459;50.254;19.014;2024-01-15T10:06:11;20.20;;;10.77;;
18659;SDS011;9459;50.254;19.014;2024-01-15T10:08:41;17.75;;;10.07;;
18659;SDS011;9459;50.254;19.014;2024-01-15T10:11:09;18.80;;;10.13;;
18659;SDS011;9459;50.254;19.014;2024-01-15T10:13:37;17.70;;;10.32;;
18659;SDS011;9459;50.254;19.014;2024-01-15T10:16:08;18.50;;;9.43;;
18659;SDS011;9459;50.254;19.014;2024-01-15T10:18:38;20.55;;;10.38;;
18659;SDS011;9459;50.254;19.014;2024-01-15T10:21:07;20.67;;;10.75;;
18659;SDS011;9459;50.254;19.014;2024-01-15T10:23:35;19.15;;;11.93;;
18659;SDS011;9459;50.254;19.014;2024-01-15T10:26:05;19.15;;;11.38;;
18659;SDS011;9459;50.254;19.014;2024-01-15T10:28:34;18.15;;;10.93;;
18659;SDS011;9459;50.254;19.014;2024-01-15T10:31:02;21.27;;;11.68;;
18659;SDS011;9459;50.254;19.014;2024-01-15T10:33:31;18.80;;;10.98;;
18659;SDS011;9459;50.254;19.014;2024-01-15T10:36:01;19.23;;;10.43;;
18659;SDS011;9459;50.254;19.014;2024-01-15T10:38:29;20.33;;;11.45;;
18659;SDS011;9459;50.254;19.014;2024-01-15T10:40:58;18.90;;;10.65;;
18659;SDS011;9459;50.254;19.014;2024-01-15T10:43:27;19.35;;;11.00;;
18659;SDS011;9459;50.254;19.014;2024-01-15T10:45:56;17.63;;;10.52;;
18659;SDS011;9459;50.254;19.014;2024-01-15T10:48:25;19.00;;;10.52;;
18659;SDS011;9459;50.254;19.014;2024-01-15T10:50:56;19.52;;;10.43;;
18659;SDS011;9459;50.254;19.014;2024-01-15T10:53:25;15.95;;;9.80;;
18659;SDS011;9459;50.254;19.014;2024-01-15T10:55:55;17.90;;;10.57;;
18659;SDS011;9459;50.254;19.014;2024-01-15T10:58:24;16.95;;;9.73;;
18659;SDS011;9459;50.254;19.014;2024-01-15T11:00:56;16.05;;;9.30;;
18659;SDS011;9459;50.254;19.014;2024-01-15T11:03:25;17.52;;;9.07;;
18659;SDS011;9459;50.254;19.014;2024-01-15T11:05:54;18.55;;;9.50;;
18659;SDS011;9459;50.254;19.014;2024-01-15T11:08:21;16.00;;;9.35;;
18659;SDS011;9459;50.254;19.014;2024-01-15T11:10:50;19.05;;;9.90;;
18659;SDS011;9459;50.254;19.014;2024-01-15T11:13:19;17.55;;;9.23;;
18659;SDS011;9459;50.254;19.014;2024-01-15T11:15:59;16.80;;;9.15;;
18659;SDS011;9459;50.254;19.014;2024-01-15T11:18:28;20.38;;;9.68;;
18659;SDS011;9459;50.254;19.014;2024-01-15T11:23:50;20.50;;;11.57;;
18659;SDS011;9459;50.254;19.014;2024-01-15T11:26:27;20.70;;;10.75;;
18659;SDS011;9459;50.254;19.014;2024-01-15T11:29:00;20.33;;;9.75;;
18659;SDS011;9459;50.254;19.014;2024-01-15T11:34:49;14.80;;;8.70;;
18659;SDS011;9459;50.254;19.014;2024-01-15T11:37:20;16.40;;;8.95;;
18659;SDS011;9459;50.254;19.014;2024-01-15T11:39:53;16.65;;;8.85;;
18659;SDS011;9459;50.254;19.014;2024-01-15T11:42:24;16.58;;;9.75;;
18659;SDS011;9459;50.254;19.014;2024-01-15T11:44:54;17.95;;;9.77;;
18659;SDS011;9459;50.254;19.014;2024-01-15T11:47:31;19.10;;;10.25;;
18659;SDS011;9459;50.254;19.014;2024-01-15T11:50:31;21.33;;;10.57;;
18659;SDS011;9459;50.254;19.014;2024-01-15T11:53:01;16.48;;;9.85;;
18659;SDS011;9459;50.254;19.014;2024-01-15T11:55:33;16.77;;;9.45;;
18659;SDS011;9459;50.254;19.014;2024-01-15T11:58:04;17.23;;;10.18;;
18659;SDS011;9459;50.254;19.014;2024-01-15T12:00:39;16.58;;;10.15;;
18659;SDS011;9459;50.254;19.014;2024-01-15T12:03:10;19.25;;;10.10;;
18659;SDS011;9459;50.254;19.014;2024-01-15T12:05:39;22.45;;;11.75;;
18659;SDS011;9459;50.254;19.014;2024-01-15T12:08:09;20.40;;;10.93;;
18659;SDS011;9459;50.254;19.014;2024-01-15T12:10:39;18.05;;;10.95;;
18659;SDS011;9459;50.254;19.014;2024-01-15T12:13:10;20.13;;;10.70;;
18659;SDS011;9459;50.254;19.014;2024-01-15T12:15:40;21.15;;;11.18;;
18659;SDS011;9459;50.254;19.014;2024-01-15T12:18:12;23.80;;;12.60;;
18659;SDS011;9459;50.254;19.014;2024-01-15T12:20:42;19.35;;;11.23;;
18659;SDS011;9459;50.254;19.014;2024-01-15T12:23:15;25.90;;;12.85;;
18659;SDS011;9459;50.254;19.014;2024-01-15T12:25:45;19.48;;;10.93;;
18659;SDS011;9459;50.254;19.014;2024-01-15T12:28:14;22.52;;;11.07;;
18659;SDS011;9459;50.254;19.014;2024-01-15T12:30:46;20.77;;;11.25;;
18659;SDS011;9459;50.254;19.014;2024-01-15T12:33:18;20.02;;;10.80;;
18659;SDS011;9459;50.254;19.014;2024-01-15T12:35:48;27.05;;;14.88;;
18659;SDS011;9459;50.254;19.014;2024-01-15T12:38:18;22.52;;;11.07;;
18659;SDS011;9459;50.254;19.014;2024-01-15T12:40:48;20.17;;;10.35;;
18659;SDS011;9459;50.254;19.014;2024-01-15T12:43:17;20.52;;;9.98;;
18659;SDS011;9459;50.254;19.014;2024-01-15T12:45:45;21.83;;;10.63;;
18659;SDS011;9459;50.254;19.014;2024-01-15T12:48:14;19.08;;;10.25;;
18659;SDS011;9459;50.254;19.014;2024-01-15T12:50:46;17.17;;;9.57;;
18659;SDS011;9459;50.254;19.014;2024-01-15T12:53:15;20.07;;;9.83;;
18659;SDS011;9459;50.254;19.014;2024-01-15T12:55:44;24.17;;;11.13;;
18659;SDS011;9459;50.254;19.014;2024-01-15T12:58:13;18.23;;;10.68;;
18659;SDS011;9459;50.254;19.014;2024-01-15T13:00:44;17.45;;;9.57;;
18659;SDS011;9459;50.254;19.014;2024-01-15T13:03:14;17.83;;;8.57;;
18659;SDS011;9459;50.254;19.014;2024-01-15T13:05:43;17.80;;;8.98;;
18659;SDS011;9459;50.254;19.014;2024-01-15T13:08:13;21.70;;;10.60;;
18659;SDS011;9459;50.254;19.014;2024-01-15T13:10:42;18.95;;;10.38;;
18659;SDS011;9459;50.254;19.014;2024-01-15T13:13:11;19.92;;;11.30;;
18659;SDS011;9459;50.254;19.014;2024-01-15T13:15:40;18.65;;;9.95;;
18659;SDS011;9459;50.254;19.014;2024-01-15T13:18:09;21.15;;;11.07;;
18659;SDS011;9459;50.254;19.014;2024-01-15T13:20:37;21.40;;;10.50;;
18659;SDS011;9459;50.254;19.014;2024-01-15T13:23:06;19.80;;;9.77;;
18659;SDS011;9459;50.254;19.014;2024-01-15T13:25:38;19.20;;;10.05;;
18659;SDS011;9459;50.254;19.014;2024-01-15T13:28:06;22.98;;;11.50;;
18659;SDS011;9459;50.254;19.014;2024-01-15T13:30:36;17.92;;;9.70;;
18659;SDS011;9459;50.254;19.014;2024-01-15T13:33:05;21.10;;;10.88;;
18659;SDS011;9459;50.254;19.014;2024-01-15T13:35:35;18.52;;;9.57;;
18659;SDS011;9459;50.254;19.014;2024-01-15T13:38:04;19.17;;;10.02;;
18659;SDS011;9459;50.254;19.014;2024-01-15T13:40:32;20.60;;;9.95;;
18659;SDS011;9459;50.254;19.014;2024-01-15T13:43:02;17.52;;;9.88;;
18659;SDS011;9459;50.254;19.014;2024-01-15T13:45:35;25.23;;;12.43;;
18659;SDS011;9459;50.254;19.014;2024-01-15T13:48:04;20.10;;;9.98;;
18659;SDS011;9459;50.254;19.014;2024-01-15T13:50:35;17.80;;;9.63;;
18659;SDS011;9459;50.254;19.014;2024-01-15T13:53:03;19.70;;;9.45;;
18659;SDS011;9459;50.254;19.014;2024-01-15T13:55:32;20.15;;;9.82;;
18659;SDS011;9459;50.254;19.014;2024-01-15T13:58:00;18.38;;;10.32;;
18659;SDS011;9459;50.254;19.014;2024-01-15T14:00:32;17.70;;;9.73;;
18659;SDS011;9459;50.254;19.014;2024-01-15T14:03:01;18.50;;;9.15;;
18659;SDS011;9459;50.254;19.014;2024-01-15T14:05:31;18.60;;;8.23;;
18659;SDS011;9459;50.254;19.014;2024-01-15T14:07:59;17.13;;;8.77;;
18659;SDS011;9459;50.254;19.014;2024-01-15T14:10:28;17.17;;;9.07;;
18659;SDS011;9459;50.254;19.014;2024-01-15T14:12:56;20.75;;;10.60;;
18659;SDS011;9459;50.254;19.014;2024-01-15T14:15:26;16.83;;;8.73;;
18659;SDS011;9459;50.254;19.014;2024-01-15T14:17:54;20.08;;;8.20;;
18659;SDS011;9459;50.254;19.014;2024-01-15T14:20:24;16.48;;;8.07;;
18659;SDS011;9459;50.254;19.014;2024-01-15T14:22:53;16.05;;;8.02;;
18659;SDS011;9459;50.254;19.014;2024-01-15T14:25:22;13.43;;;8.18;;
18659;SDS011;9459;50.254;19.014;2024-01-15T14:27:51;19.70;;;9.15;;
18659;SDS011;9459;50.254;19.014;2024-01-15T14:30:19;14.23;;;7.75;;
18659;SDS011;9459;50.254;19.014;2024-01-15T14:32:49;15.25;;;7.70;;
18659;SDS011;9459;50.254;19.014;2024-01-15T14:35:17;16.73;;;8.77;;
18659;SDS011;9459;50.254;19.014;2024-01-15T14:37:46;16.42;;;7.68;;
18659;SDS011;9459;50.254;19.014;2024-01-15T14:40:15;16.00;;;8.00;;
18659;SDS011;9459;50.254;19.014;2024-01-15T14:42:44;13.88;;;7.68;;
18659;SDS011;9459;50.254;19.014;2024-01-15T14:45:12;15.18;;;7.93;;
18659;SDS011;9459;50.254;19.014;2024-01-15T14:47:41;21.08;;;9.93;;
18659;SDS011;9459;50.254;19.014;2024-01-15T14:50:12;15.93;;;7.55;;
18659;SDS011;9459;50.254;19.014;2024-01-15T14:52:41;19.02;;;9.30;;
18659;SDS011;9459;50.254;19.014;2024-01-15T14:55:12;19.52;;;9.73;;